createdAt,value
2023-04-02T00:00:20.743Z,99650.03
2023-04-02T00:02:57.505Z,99659.34
2023-04-02T00:05:51.450Z,99660.19
2023-04-02T00:08:22.200Z,99662.84
2023-04-02T00:10:55.075Z,99656.16
2023-04-02T00:13:26.032Z,99663.88
2023-04-02T00:15:57.912Z,99654.47
2023-04-02T00:18:26.255Z,99663.00
2023-04-02T00:21:32.873Z,99660.63
2023-04-02T00:24:01.528Z,99669.19
2023-04-02T00:26:38.060Z,99673.38
2023-04-02T00:29:06.238Z,99676.00
2023-04-02T00:31:34.407Z,99675.09
2023-04-02T00:34:04.649Z,99680.25
2023-04-02T00:36:34.306Z,99676.06
2023-04-02T00:39:03.562Z,99688.06
2023-04-02T00:41:32.160Z,99682.06
2023-04-02T00:44:01.026Z,99678.63
2023-04-02T00:46:34.705Z,99695.66
2023-04-02T00:49:09.140Z,99688.91
2023-04-02T00:51:39.098Z,99695.75
2023-04-02T00:54:07.248Z,99685.66
2023-04-02T00:56:39.459Z,99687.44
2023-04-02T00:59:18.427Z,99694.25
2023-04-02T01:01:45.906Z,99706.13
2023-04-02T01:04:29.239Z,99705.47
2023-04-02T01:06:56.753Z,99697.63
2023-04-02T01:09:40.494Z,99715.53
2023-04-02T01:12:25.049Z,99721.28
2023-04-02T01:15:15.695Z,99716.38
2023-04-02T01:18:01.526Z,99712.13
2023-04-02T01:21:08.589Z,99718.09
2023-04-02T01:24:05.233Z,99716.50
2023-04-02T01:27:06.125Z,99719.91
2023-04-02T01:29:38.641Z,99715.91
2023-04-02T01:32:12.397Z,99725.38
2023-04-02T01:34:44.714Z,99725.13
2023-04-02T01:37:40.212Z,99728.00
2023-04-02T01:40:36.545Z,99728.78
2023-04-02T01:43:16.675Z,99726.25
2023-04-02T01:45:44.334Z,99724.69
2023-04-02T01:48:19.938Z,99723.03
2023-04-02T01:50:49.924Z,99735.94
2023-04-02T01:53:18.326Z,99739.34
2023-04-02T01:55:52.574Z,99742.63
2023-04-02T01:58:25.435Z,99741.97
2023-04-02T02:01:04.445Z,99737.72
2023-04-02T02:03:32.105Z,99749.78
2023-04-02T02:06:00.249Z,99754.84
2023-04-02T02:08:34.743Z,99764.03
2023-04-02T02:11:02.660Z,99764.22
2023-04-02T02:13:29.546Z,99774.63
2023-04-02T02:16:00.436Z,99769.50
2023-04-02T02:18:27.949Z,99779.78
2023-04-02T02:20:57.069Z,99784.88
2023-04-02T02:23:23.984Z,99784.91
2023-04-02T02:25:51.471Z,99791.84
2023-04-02T02:28:23.485Z,99792.72
2023-04-02T02:30:57.669Z,99787.69
2023-04-02T02:33:39.285Z,99786.81
2023-04-02T02:36:23.324Z,99802.34
2023-04-02T02:38:55.676Z,99798.81
2023-04-02T02:41:52.178Z,99800.56
2023-04-02T02:44:25.933Z,99801.50
2023-04-02T02:46:58.345Z,99798.84
2023-04-02T02:49:28.904Z,99799.47
2023-04-02T02:52:01.891Z,99809.72
2023-04-02T02:54:38.673Z,99819.28
2023-04-02T02:57:10.036Z,99810.09
2023-04-02T02:59:38.017Z,99813.63
2023-04-02T03:02:07.439Z,99804.06
2023-04-02T03:04:36.604Z,99813.47
2023-04-02T03:07:11.966Z,99803.16
2023-04-02T03:09:51.152Z,99828.97
2023-04-02T03:12:44.306Z,99830.75
2023-04-02T03:15:27.908Z,99837.59
2023-04-02T03:18:00.922Z,99837.63
2023-04-02T03:20:44.339Z,99849.69
2023-04-02T03:23:20.504Z,99842.72
2023-04-02T03:26:10.026Z,99837.56
2023-04-02T03:28:42.982Z,99849.66
2023-04-02T03:31:23.396Z,99850.56
2023-04-02T03:33:55.905Z,99858.13
2023-04-02T03:36:31.084Z,99852.16
2023-04-02T03:39:13.197Z,99861.56
2023-04-02T03:41:52.285Z,99858.06
2023-04-02T03:44:51.731Z,99883.00
2023-04-02T03:47:34.932Z,99870.03
2023-04-02T03:50:07.299Z,99862.44
2023-04-02T03:52:37.086Z,99890.78
2023-04-02T03:55:11.665Z,99883.19
2023-04-02T03:57:48.162Z,99872.72
2023-04-02T04:00:17.600Z,99890.81
2023-04-02T04:02:53.582Z,99896.72
2023-04-02T04:05:29.820Z,99906.25
2023-04-02T04:08:07.797Z,99910.53
2023-04-02T04:10:35.465Z,99900.97
2023-04-02T04:13:24.946Z,99923.63
2023-04-02T04:15:56.446Z,99926.09
2023-04-02T04:18:38.006Z,99927.91
2023-04-02T04:21:30.962Z,99944.13
2023-04-02T04:24:07.456Z,99954.94
2023-04-02T04:26:53.625Z,99956.00
2023-04-02T04:29:49.601Z,99948.91
2023-04-02T04:32:39.351Z,99956.16
2023-04-02T04:35:40.428Z,99961.94
2023-04-02T04:38:21.919Z,99963.09
2023-04-02T04:40:54.272Z,99958.81
2023-04-02T04:43:41.067Z,99969.69
2023-04-02T04:46:15.053Z,99968.97
2023-04-02T04:49:07.855Z,99980.28
2023-04-02T04:51:44.613Z,99974.13
2023-04-02T04:54:15.826Z,99988.31
2023-04-02T04:56:49.300Z,99974.78
2023-04-02T04:59:27.928Z,99992.03
2023-04-02T05:02:05.958Z,99993.75
2023-04-02T05:04:40.451Z,99998.69
2023-04-02T05:07:22.170Z,99992.84
2023-04-02T05:10:18.372Z,99999.69
2023-04-02T05:12:59.901Z,100008.25
2023-04-02T05:15:51.952Z,100010.97
2023-04-02T05:18:34.507Z,100018.25
2023-04-02T05:21:27.632Z,100021.25
2023-04-02T05:24:34.633Z,100021.34
2023-04-02T05:27:24.926Z,100026.56
2023-04-02T05:29:59.100Z,100032.41
2023-04-02T05:32:31.336Z,100038.53
2023-04-02T05:34:58.740Z,100047.19
2023-04-02T05:37:29.364Z,100046.19
2023-04-02T05:40:06.699Z,100043.78
2023-04-02T05:42:36.021Z,100042.03
2023-04-02T05:45:29.665Z,100050.38
2023-04-02T05:48:02.175Z,100060.63
2023-04-02T05:50:41.114Z,100063.63
2023-04-02T05:53:25.765Z,100073.81
2023-04-02T05:56:01.736Z,100075.00
2023-04-02T05:58:37.316Z,100077.22
2023-04-02T06:01:45.474Z,100088.22
2023-04-02T06:04:52.545Z,100076.31
2023-04-02T06:07:23.042Z,100089.19
2023-04-02T06:10:05.103Z,100082.47
2023-04-02T06:12:42.396Z,100091.06
2023-04-02T06:15:15.757Z,100108.25
2023-04-02T06:17:59.760Z,100090.34
2023-04-02T06:20:28.798Z,100106.31
2023-04-02T06:23:35.371Z,100111.03
2023-04-02T06:26:15.271Z,100111.84
2023-04-02T06:28:53.083Z,100099.44
2023-04-02T06:31:37.442Z,100132.84
2023-04-02T06:34:07.634Z,100133.34
2023-04-02T06:36:35.120Z,100123.97
2023-04-02T06:39:09.205Z,100134.50
2023-04-02T06:41:37.140Z,100131.09
2023-04-02T06:44:28.145Z,100126.78
2023-04-02T06:47:34.669Z,100125.69
2023-04-02T06:50:42.183Z,100153.19
2023-04-02T06:53:21.618Z,100161.25
2023-04-02T06:55:56.572Z,100167.97
2023-04-02T06:58:27.811Z,100156.44
2023-04-02T07:00:55.332Z,100184.38
2023-04-02T07:03:34.212Z,100161.50
2023-04-02T07:06:15.140Z,100170.56
2023-04-02T07:08:42.880Z,100188.19
2023-04-02T07:11:20.819Z,100185.00
2023-04-02T07:13:49.982Z,100182.19
2023-04-02T07:16:20.292Z,100169.50
2023-04-02T07:18:48.662Z,100178.78
2023-04-02T07:21:15.698Z,100204.16
2023-04-02T07:23:42.899Z,100191.28
2023-04-02T07:26:14.541Z,100215.31
2023-04-02T07:28:42.078Z,100218.09
2023-04-02T07:31:18.871Z,100230.72
2023-04-02T07:33:46.426Z,100235.72
2023-04-02T07:36:15.621Z,100220.75
2023-04-02T07:38:42.801Z,100228.78
2023-04-02T07:41:10.089Z,100234.19
2023-04-02T07:43:37.718Z,100234.94
2023-04-02T07:46:05.460Z,100229.78
2023-04-02T07:48:32.449Z,100214.91
2023-04-02T07:51:00.657Z,100240.72
2023-04-02T07:53:33.805Z,100259.28
2023-04-02T07:56:02.218Z,100255.50
2023-04-02T07:58:30.383Z,100269.28
2023-04-02T08:00:57.410Z,100267.19
2023-04-02T08:03:24.510Z,100289.56
2023-04-02T08:05:53.227Z,100284.53
2023-04-02T08:08:21.225Z,100274.44
2023-04-02T08:10:48.732Z,100289.06
2023-04-02T08:13:16.260Z,100281.63
2023-04-02T08:15:43.806Z,100274.41
2023-04-02T08:18:11.491Z,100277.00
2023-04-02T08:20:41.506Z,100304.81
2023-04-02T08:23:26.900Z,100306.00
2023-04-02T08:25:59.954Z,100303.63
2023-04-02T08:28:27.155Z,100311.56
2023-04-02T08:30:54.047Z,100315.88
2023-04-02T08:33:21.206Z,100316.97
2023-04-02T08:35:48.939Z,100322.16
2023-04-02T08:38:17.636Z,100311.31
2023-04-02T08:40:53.330Z,100316.94
2023-04-02T08:43:41.992Z,100316.84
2023-04-02T08:46:23.526Z,100328.59
2023-04-02T08:48:55.496Z,100296.84
2023-04-02T08:51:32.038Z,100340.38
2023-04-02T08:54:21.366Z,100350.06
2023-04-02T08:56:53.997Z,100340.47
2023-04-02T08:59:41.676Z,100348.91
2023-04-02T09:02:48.432Z,100361.72
2023-04-02T09:05:24.027Z,100356.41
2023-04-02T09:07:52.620Z,100357.53
2023-04-02T09:10:19.813Z,100368.84
2023-04-02T09:12:51.782Z,100378.72
2023-04-02T09:15:24.759Z,100387.22
2023-04-02T09:18:00.334Z,100374.69
2023-04-02T09:20:28.648Z,100385.75
2023-04-02T09:22:56.682Z,100385.63
2023-04-02T09:25:29.883Z,100404.94
2023-04-02T09:27:58.511Z,100415.25
2023-04-02T09:31:06.938Z,100436.88
2023-04-02T09:33:42.793Z,100429.03
2023-04-02T09:36:34.801Z,100403.59
2023-04-02T09:39:23.222Z,100446.81
2023-04-02T09:42:02.713Z,100423.09
2023-04-02T09:44:31.821Z,100438.22
2023-04-02T09:47:05.501Z,100463.34
2023-04-02T09:49:39.807Z,100449.97
2023-04-02T09:52:14.679Z,100449.47
2023-04-02T09:54:44.470Z,100453.41
2023-04-02T09:57:23.805Z,100463.66
2023-04-02T10:00:29.966Z,100449.41
2023-04-02T10:03:05.369Z,100468.78
2023-04-02T10:05:40.427Z,100466.84
2023-04-02T10:08:18.277Z,100478.97
2023-04-02T10:10:49.997Z,100476.88
2023-04-02T10:13:21.697Z,100487.06
2023-04-02T10:16:13.076Z,100492.56
2023-04-02T10:18:48.781Z,100500.47
2023-04-02T10:21:19.112Z,100499.06
2023-04-02T10:23:46.177Z,100486.44
2023-04-02T10:26:52.709Z,100521.78
2023-04-02T10:30:02.560Z,100528.69
2023-04-02T10:32:39.774Z,100523.03
2023-04-02T10:35:23.444Z,100515.59
2023-04-02T10:37:59.864Z,100500.22
2023-04-02T10:40:48.353Z,100516.88
2023-04-02T10:43:33.807Z,100526.09
2023-04-02T10:46:27.772Z,100539.72
2023-04-02T10:49:08.372Z,100552.41
2023-04-02T10:51:46.472Z,100568.38
2023-04-02T10:54:43.739Z,100522.66
2023-04-02T10:57:35.238Z,100544.91
2023-04-02T11:00:18.243Z,100559.41
2023-04-02T11:02:51.556Z,100568.41
2023-04-02T11:05:51.361Z,100536.00
2023-04-02T11:08:21.913Z,100555.16
2023-04-02T11:10:51.329Z,100557.09
2023-04-02T11:13:29.363Z,100572.41
2023-04-02T11:15:56.458Z,100587.53
2023-04-02T11:18:36.194Z,100591.22
2023-04-02T11:21:08.675Z,100567.16
2023-04-02T11:23:40.382Z,100605.84
2023-04-02T11:26:38.274Z,100599.97
2023-04-02T11:29:16.402Z,100595.13
2023-04-02T11:31:44.437Z,100605.03
2023-04-02T11:34:14.104Z,100606.66
2023-04-02T11:37:01.721Z,100611.22
2023-04-02T11:39:53.487Z,100606.41
2023-04-02T11:42:31.137Z,100630.41
2023-04-02T11:45:52.920Z,100631.84
2023-04-02T11:48:33.962Z,100625.28
2023-04-02T11:51:04.810Z,100624.81
2023-04-02T11:53:34.425Z,100631.13
2023-04-02T11:56:23.863Z,100635.72
2023-04-02T11:59:16.538Z,100652.94
2023-04-02T12:02:23.268Z,100647.72
2023-04-02T12:05:14.826Z,100655.91
2023-04-02T12:08:08.292Z,100652.06
2023-04-02T12:10:54.747Z,100666.75
2023-04-02T12:13:49.959Z,100674.06
2023-04-02T12:16:18.095Z,100646.47
2023-04-02T12:18:47.342Z,100657.38
2023-04-02T12:21:24.238Z,100679.44
2023-04-02T12:23:54.405Z,100671.81
2023-04-02T12:26:42.443Z,100690.59
2023-04-02T12:29:17.254Z,100692.94
2023-04-02T12:31:46.535Z,100705.47
2023-04-02T12:34:18.928Z,100699.41
2023-04-02T12:36:54.466Z,100667.34
2023-04-02T12:39:22.121Z,100687.34
2023-04-02T12:41:49.254Z,100659.38
2023-04-02T12:44:18.708Z,100711.88
2023-04-02T12:46:46.548Z,100685.84
2023-04-02T12:49:39.848Z,100711.00
2023-04-02T12:52:09.474Z,100711.78
2023-04-02T12:54:55.617Z,100712.47
2023-04-02T12:57:36.399Z,100702.16
2023-04-02T13:00:28.772Z,100722.94
2023-04-02T13:02:59.645Z,100730.84
2023-04-02T13:05:51.612Z,100726.25
2023-04-02T13:08:23.209Z,100713.00
2023-04-02T13:10:56.212Z,100735.56
2023-04-02T13:13:30.377Z,100726.25
2023-04-02T13:16:19.983Z,100710.75
2023-04-02T13:18:49.016Z,100736.22
2023-04-02T13:21:29.352Z,100744.41
2023-04-02T13:23:56.393Z,100740.00
2023-04-02T13:26:25.830Z,100739.09
2023-04-02T13:29:01.594Z,100747.41
2023-04-02T13:31:32.690Z,100754.56
2023-04-02T13:33:59.681Z,100756.50
2023-04-02T13:36:29.190Z,100722.75
2023-04-02T13:38:56.571Z,100771.41
2023-04-02T13:41:42.915Z,100766.75
2023-04-02T13:44:19.412Z,100754.84
2023-04-02T13:46:46.572Z,100765.16
2023-04-02T13:49:13.474Z,100758.94
2023-04-02T13:51:46.526Z,100774.47
2023-04-02T13:54:38.956Z,100780.97
2023-04-02T13:57:43.895Z,100770.31
2023-04-02T14:00:11.746Z,100775.84
2023-04-02T14:02:47.535Z,100781.66
2023-04-02T14:05:24.078Z,100794.63
2023-04-02T14:08:09.927Z,100828.84
2023-04-02T14:10:55.556Z,100797.47
2023-04-02T14:13:50.706Z,100813.53
2023-04-02T14:16:38.847Z,100807.81
2023-04-02T14:19:37.922Z,100799.66
2023-04-02T14:22:29.565Z,100810.50
2023-04-02T14:25:21.978Z,100816.06
2023-04-02T14:28:22.303Z,100812.84
2023-04-02T14:31:16.567Z,100829.66
2023-04-02T14:34:04.157Z,100819.34
2023-04-02T14:36:56.526Z,100835.38
2023-04-02T14:40:04.112Z,100818.41
2023-04-02T14:42:57.619Z,100839.81
2023-04-02T14:46:04.471Z,100839.22
2023-04-02T14:48:56.624Z,100856.41
2023-04-02T14:51:35.032Z,100844.97
2023-04-02T14:54:29.262Z,100835.72
2023-04-02T14:57:18.897Z,100842.28
2023-04-02T15:00:13.436Z,100857.75
2023-04-02T15:02:45.921Z,100856.84
2023-04-02T15:05:37.689Z,100874.81
2023-04-02T15:08:16.310Z,100880.25
2023-04-02T15:10:56.405Z,100882.81
2023-04-02T15:13:30.492Z,100865.47
2023-04-02T15:16:13.914Z,100898.13
2023-04-02T15:18:40.866Z,100896.97
2023-04-02T15:21:30.414Z,100878.94
2023-04-02T15:24:06.112Z,100886.34
2023-04-02T15:27:23.920Z,100868.75
2023-04-02T15:30:13.148Z,100877.16
2023-04-02T15:32:44.007Z,100875.31
2023-04-02T15:35:37.054Z,100900.16
2023-04-02T15:38:12.326Z,100898.06
2023-04-02T15:40:46.392Z,100894.28
2023-04-02T15:43:38.809Z,100899.44
2023-04-02T15:46:31.548Z,100927.69
2023-04-02T15:49:15.476Z,100890.75
2023-04-02T15:52:08.364Z,100907.38
2023-04-02T15:55:09.804Z,100909.72
2023-04-02T15:58:09.649Z,100925.34
2023-04-02T16:00:49.217Z,100916.94
2023-04-02T16:03:56.049Z,100938.94
2023-04-02T16:06:32.508Z,100932.13
2023-04-02T16:09:08.607Z,100932.31
2023-04-02T16:11:36.512Z,100924.38
2023-04-02T16:14:19.063Z,100944.41
2023-04-02T16:16:47.581Z,100950.06
2023-04-02T16:19:34.948Z,100956.84
2023-04-02T16:22:20.747Z,100944.91
2023-04-02T16:24:54.065Z,100932.66
2023-04-02T16:27:31.949Z,100956.50
2023-04-02T16:30:24.222Z,100960.13
2023-04-02T16:33:31.250Z,100966.31
2023-04-02T16:36:15.600Z,100969.00
2023-04-02T16:39:04.137Z,100969.72
2023-04-02T16:42:00.558Z,100979.50
2023-04-02T16:44:53.284Z,100983.50
2023-04-02T16:47:40.460Z,100968.75
2023-04-02T16:50:47.162Z,100978.16
2023-04-02T16:54:00.385Z,100988.94
2023-04-02T16:56:55.910Z,100994.09
2023-04-02T16:59:44.637Z,100993.75
2023-04-02T17:02:36.610Z,101007.00
2023-04-02T17:05:11.675Z,101006.25
2023-04-02T17:07:45.192Z,101020.38
2023-04-02T17:10:40.080Z,101041.69
2023-04-02T17:13:30.199Z,101008.72
2023-04-02T17:16:21.835Z,101027.44
2023-04-02T17:18:57.983Z,101016.56
2023-04-02T17:21:27.416Z,101014.50
2023-04-02T17:23:57.435Z,101021.66
2023-04-02T17:26:27.629Z,101019.97
2023-04-02T17:28:55.406Z,101036.41
2023-04-02T17:31:24.231Z,101037.28
2023-04-02T17:33:51.368Z,101041.25
2023-04-02T17:36:30.090Z,101043.53
2023-04-02T17:39:11.712Z,101037.25
2023-04-02T17:41:44.621Z,101043.59
2023-04-02T17:44:31.907Z,101053.69
2023-04-02T17:47:38.645Z,101044.53
2023-04-02T17:50:46.261Z,101051.03
2023-04-02T17:53:43.896Z,101058.94
2023-04-02T17:56:23.761Z,101063.59
2023-04-02T17:59:21.826Z,101055.31
2023-04-02T18:02:19.109Z,101062.38
2023-04-02T18:05:10.187Z,101069.22
2023-04-02T18:08:03.191Z,101058.00
2023-04-02T18:10:54.712Z,101078.38
2023-04-02T18:13:36.202Z,101061.31
2023-04-02T18:16:34.783Z,101089.66
2023-04-02T18:19:28.269Z,101083.81
2023-04-02T18:22:06.838Z,101081.34
2023-04-02T18:24:47.619Z,101082.78
2023-04-02T18:27:40.663Z,101096.97
2023-04-02T18:30:19.086Z,101103.50
2023-04-02T18:33:03.330Z,101096.00
2023-04-02T18:35:43.863Z,101093.38
2023-04-02T18:38:37.483Z,101109.88
2023-04-02T18:41:34.734Z,101105.34
2023-04-02T18:44:34.096Z,101108.38
2023-04-02T18:47:09.484Z,101109.59
2023-04-02T18:49:41.445Z,101122.19
2023-04-02T18:52:14.113Z,101116.84
2023-04-02T18:54:51.762Z,101124.59
2023-04-02T18:57:29.764Z,101141.25
2023-04-02T19:00:26.433Z,101132.56
2023-04-02T19:03:18.692Z,101138.47
2023-04-02T19:05:52.319Z,101126.84
2023-04-02T19:08:48.236Z,101138.53
2023-04-02T19:11:28.395Z,101146.38
2023-04-02T19:13:56.673Z,101133.88
2023-04-02T19:16:34.851Z,101142.78
2023-04-02T19:19:12.107Z,101158.59
2023-04-02T19:22:05.764Z,101150.69
2023-04-02T19:25:03.284Z,101163.28
2023-04-02T19:28:00.832Z,101150.78
2023-04-02T19:30:54.421Z,101151.50
2023-04-02T19:33:44.283Z,101162.91
2023-04-02T19:36:41.669Z,101162.78
2023-04-02T19:39:39.499Z,101168.47
2023-04-02T19:42:44.478Z,101172.56
2023-04-02T19:45:28.546Z,101171.31
2023-04-02T19:47:59.324Z,101173.78
2023-04-02T19:50:26.481Z,101182.41
2023-04-02T19:52:58.686Z,101183.47
2023-04-02T19:55:31.261Z,101172.13
2023-04-02T19:58:08.814Z,101182.91
2023-04-02T20:00:42.453Z,101188.81
2023-04-02T20:03:25.545Z,101192.72
2023-04-02T20:05:55.764Z,101197.38
2023-04-02T20:08:27.533Z,101197.22
2023-04-02T20:10:59.217Z,101195.91
2023-04-02T20:13:27.777Z,101205.69
2023-04-02T20:16:00.702Z,101207.66
2023-04-02T20:18:31.226Z,101200.00
2023-04-02T20:20:58.588Z,101218.03
2023-04-02T20:23:26.926Z,101216.22
2023-04-02T20:25:57.192Z,101225.34
2023-04-02T20:28:25.530Z,101208.75
2023-04-02T20:30:52.499Z,101230.16
2023-04-02T20:33:22.566Z,101226.94
2023-04-02T20:35:50.779Z,101215.63
2023-04-02T20:38:18.346Z,101215.88
2023-04-02T20:40:52.136Z,101213.66
2023-04-02T20:43:19.050Z,101219.34
2023-04-02T20:46:01.095Z,101224.66
2023-04-02T20:48:30.748Z,101222.63
2023-04-02T20:50:57.924Z,101202.03
2023-04-02T20:53:24.805Z,101207.75
2023-04-02T20:55:51.776Z,101208.63
2023-04-02T20:58:19.055Z,101226.53
2023-04-02T21:00:46.143Z,101223.97
2023-04-02T21:03:12.997Z,101226.25
2023-04-02T21:05:44.663Z,101228.88
2023-04-02T21:08:12.317Z,101234.88
2023-04-02T21:10:39.698Z,101234.34
2023-04-02T21:13:07.055Z,101229.81
2023-04-02T21:15:34.440Z,101232.75
2023-04-02T21:18:01.509Z,101231.84
2023-04-02T21:20:28.487Z,101242.06
2023-04-02T21:22:55.542Z,101243.69
2023-04-02T21:25:22.447Z,101254.88
2023-04-02T21:27:49.262Z,101247.25
2023-04-02T21:30:16.315Z,101257.03
2023-04-02T21:32:43.258Z,101246.84
2023-04-02T21:35:10.340Z,101244.94
2023-04-02T21:37:37.161Z,101257.69
2023-04-02T21:40:04.411Z,101257.81
2023-04-02T21:42:31.311Z,101257.91
2023-04-02T21:44:58.123Z,101259.81
2023-04-02T21:47:25.051Z,101251.75
2023-04-02T21:49:51.818Z,101253.78
2023-04-02T21:52:18.644Z,101252.00
2023-04-02T21:54:45.430Z,101263.03
2023-04-02T21:57:12.262Z,101276.16
2023-04-02T21:59:39.108Z,101270.38
2023-04-02T22:02:06.928Z,101268.78
2023-04-02T22:04:33.770Z,101264.59
2023-04-02T22:07:01.216Z,101255.63
2023-04-02T22:09:28.221Z,101268.38
2023-04-02T22:11:59.664Z,101269.72
2023-04-02T22:14:27.616Z,101266.22
2023-04-02T22:16:54.878Z,101274.25
2023-04-02T22:19:22.092Z,101276.75
2023-04-02T22:21:49.131Z,101276.00
2023-04-02T22:24:25.077Z,101279.38
2023-04-02T22:26:52.121Z,101270.81
2023-04-02T22:29:19.010Z,101270.22
2023-04-02T22:31:46.283Z,101282.31
2023-04-02T22:34:13.343Z,101272.13
2023-04-02T22:36:40.187Z,101298.00
2023-04-02T22:39:10.397Z,101283.13
2023-04-02T22:41:37.384Z,101281.72
2023-04-02T22:44:04.507Z,101279.53
2023-04-02T22:46:31.674Z,101271.84
2023-04-02T22:48:59.140Z,101285.59
2023-04-02T22:51:28.066Z,101281.59
2023-04-02T22:53:55.774Z,101286.47
2023-04-02T22:56:26.756Z,101288.09
2023-04-02T22:58:53.685Z,101271.31
2023-04-02T23:01:23.545Z,101288.47
2023-04-02T23:03:53.752Z,101285.59
2023-04-02T23:06:21.242Z,101266.81
2023-04-02T23:08:48.083Z,101287.69
2023-04-02T23:11:19.161Z,101281.84
2023-04-02T23:13:48.543Z,101285.38
2023-04-02T23:16:16.008Z,101280.47
2023-04-02T23:18:44.171Z,101277.09
2023-04-02T23:21:11.144Z,101285.97
2023-04-02T23:23:38.251Z,101281.84
2023-04-02T23:26:11.091Z,101272.94
2023-04-02T23:28:39.286Z,101294.56
2023-04-02T23:31:07.928Z,101277.59
2023-04-02T23:33:35.596Z,101279.56
2023-04-02T23:36:14.992Z,101290.66
2023-04-02T23:38:42.044Z,101293.44
2023-04-02T23:41:15.927Z,101277.97
2023-04-02T23:43:43.010Z,101278.28
2023-04-02T23:46:10.270Z,101276.28
2023-04-02T23:48:37.247Z,101282.06
2023-04-02T23:51:04.279Z,101289.84
2023-04-02T23:53:31.361Z,101288.19
2023-04-02T23:55:58.159Z,101294.97
2023-04-02T23:58:25.112Z,101293.75
